Time;durP1;ratioP1;P1;durP2;ratioP2;P2;SDS_P1;SDS_P2;PMS_P1;PMS_P2;Temp;Humidity;BMP_temperature;BMP_pressure;BME280_temperature;BME280_humidity;BME280_pressure;Samples;Min_cycle;Max_cycle;Signal;HPM_P1;HPM_P2
2023/06/29 00:00:20;;;;;;;8.63;2.45;;;;;;;;;;5094486;22;20051;-77
2023/06/29 00:02:46;;;;;;;9.20;2.50;;;;;;;;;;5091591;28;20040;-76
2023/06/29 00:05:11;;;;;;;6.75;3.33;;;;;;;;;;5092621;28;20112;-77
2023/06/29 00:07:37;;;;;;;9.48;2.80;;;;;;;;;;5074736;28;20452;-77
2023/06/29 00:10:03;;;;;;;6.60;2.80;;;;;;;;;;5092275;28;20025;-77
2023/06/29 00:12:29;;;;;;;8.50;2.80;;;;;;;;;;5074549;28;20074;-75
2023/06/29 00:14:54;;;;;;;9.45;3.03;;;;;;;;;;5074857;28;20099;-76
2023/06/29 00:17:20;;;;;;;6.63;2.90;;;;;;;;;;5092469;28;20498;-77
2023/06/29 00:19:47;;;;;;;6.55;2.70;;;;;;;;;;5092454;28;20024;-77
2023/06/29 00:22:13;;;;;;;10.80;2.67;;;;;;;;;;5092421;28;20111;-75
2023/06/29 00:24:42;;;;;;;5.68;2.50;;;;;;;;;;5074995;28;20032;-78
2023/06/29 00:27:07;;;;;;;;;;;;;;;;;;5093298;28;20024;-76
2023/06/29 00:29:33;;;;;;;4.90;2.35;;;;;;;;;;5092962;28;19908;-77
2023/06/29 00:31:58;;;;;;;5.28;2.60;;;;;;;;;;5091457;28;20046;-76
2023/06/29 00:34:24;;;;;;;8.10;2.70;;;;;;;;;;5091445;28;20074;-78
2023/06/29 00:36:49;;;;;;;5.35;2.17;;;;;;;;;;5092658;28;20463;-77
2023/06/29 00:39:15;;;;;;;5.47;2.33;;;;;;;;;;5075575;28;20055;-75
2023/06/29 00:41:40;;;;;;;4.75;2.53;;;;;;;;;;5092303;28;20501;-76
2023/06/29 00:44:08;;;;;;;9.13;2.63;;;;;;;;;;5091655;28;20028;-77
2023/06/29 00:46:33;;;;;;;6.57;2.15;;;;;;;;;;5092534;28;20074;-77
2023/06/29 00:48:59;;;;;;;4.72;2.58;;;;;;;;;;5091448;28;20064;-76
2023/06/29 00:51:25;;;;;;;5.53;2.13;;;;;;;;;;5090694;28;20028;-77
2023/06/29 00:53:51;;;;;;;6.22;2.40;;;;;;;;;;5092351;28;20486;-76
2023/06/29 00:56:19;;;;;;;9.30;2.33;;;;;;;;;;5091408;28;20035;-77
2023/06/29 00:58:48;;;;;;;8.30;2.90;;;;;;;;;;5093062;28;20059;-77
2023/06/29 01:01:13;;;;;;;6.28;2.47;;;;;;;;;;5093739;28;20028;-77
2023/06/29 01:03:40;;;;;;;7.90;2.47;;;;;;;;;;5093712;28;20027;-77
2023/06/29 01:06:08;;;;;;;4.75;2.38;;;;;;;;;;5099729;28;20036;-77
2023/06/29 01:08:36;;;;;;;5.35;2.15;;;;;;;;;;5103205;28;20080;-76
2023/06/29 01:11:03;;;;;;;10.65;2.22;;;;;;;;;;5103295;28;20137;-77
2023/06/29 01:13:30;;;;;;;7.90;2.50;;;;;;;;;;5089453;28;20040;-78
2023/06/29 01:15:57;;;;;;;5.25;2.45;;;;;;;;;;5106674;28;20031;-78
2023/06/29 01:18:23;;;;;;;7.75;2.50;;;;;;;;;;5096824;28;20531;-78
2023/06/29 01:20:49;;;;;;;10.02;2.58;;;;;;;;;;5093852;28;20032;-77
2023/06/29 01:23:25;;;;;;;6.88;2.22;;;;;;;;;;5095666;28;20411;-77
2023/06/29 01:25:53;;;;;;;6.35;2.20;;;;;;;;;;5079300;28;20028;-78
2023/06/29 01:28:18;;;;;;;6.72;2.40;;;;;;;;;;5096016;28;20028;-77
2023/06/29 01:30:50;;;;;;;9.75;2.38;;;;;;;;;;5096386;28;20437;-78
2023/06/29 01:33:22;;;;;;;7.57;2.47;;;;;;;;;;5096689;28;20047;-76
2023/06/29 01:35:49;;;;;;;16.98;2.60;;;;;;;;;;5095349;28;20101;-78
2023/06/29 01:38:17;;;;;;;6.80;2.80;;;;;;;;;;5094629;28;20043;-78
2023/06/29 01:40:44;;;;;;;10.63;2.75;;;;;;;;;;5095524;28;20024;-77
2023/06/29 01:43:10;;;;;;;5.82;2.50;;;;;;;;;;5094409;28;20434;-78
2023/06/29 01:45:36;;;;;;;9.05;2.88;;;;;;;;;;5095653;28;20032;-76
2023/06/29 01:48:03;;;;;;;6.53;2.50;;;;;;;;;;5094194;28;20528;-76
2023/06/29 01:50:29;;;;;;;12.45;3.08;;;;;;;;;;5076786;28;20395;-77
2023/06/29 01:52:54;;;;;;;7.75;2.50;;;;;;;;;;5093937;28;20021;-77
2023/06/29 01:55:20;;;;;;;11.13;3.13;;;;;;;;;;5094990;28;20111;-77
2023/06/29 01:57:45;;;;;;;6.82;2.28;;;;;;;;;;5076721;28;20035;-77
2023/06/29 02:00:12;;;;;;;16.15;3.50;;;;;;;;;;5093449;28;20036;-77
2023/06/29 02:02:40;;;;;;;7.22;2.35;;;;;;;;;;5094810;28;20031;-76
2023/06/29 02:05:06;;;;;;;7.50;2.40;;;;;;;;;;5077224;28;20027;-78
2023/06/29 02:07:33;;;;;;;9.18;2.47;;;;;;;;;;5095998;28;20028;-79
2023/06/29 02:09:59;;;;;;;12.07;2.45;;;;;;;;;;5098476;28;20020;-76
2023/06/29 02:12:24;;;;;;;9.10;2.28;;;;;;;;;;5097614;28;20036;-79
2023/06/29 02:14:50;;;;;;;8.43;2.33;;;;;;;;;;5096595;28;20036;-76
2023/06/29 02:17:16;;;;;;;8.80;3.03;;;;;;;;;;5094854;28;20464;-77
2023/06/29 02:19:41;;;;;;;8.43;2.50;;;;;;;;;;5093336;28;20036;-77
2023/06/29 02:22:07;;;;;;;8.10;2.47;;;;;;;;;;5095018;28;20103;-77
2023/06/29 02:24:33;;;;;;;11.88;3.42;;;;;;;;;;5095680;28;20411;-78
2023/06/29 02:27:01;;;;;;;10.40;3.03;;;;;;;;;;5077562;28;20032;-78
2023/06/29 02:29:26;;;;;;;11.13;2.80;;;;;;;;;;5094753;28;20157;-77
2023/06/29 02:31:52;;;;;;;10.07;2.33;;;;;;;;;;5094089;28;20049;-78
2023/06/29 02:34:19;;;;;;;7.50;2.80;;;;;;;;;;5076533;28;20024;-77
2023/06/29 02:36:45;;;;;;;12.90;2.80;;;;;;;;;;5093246;28;20467;-75
2023/06/29 02:39:13;;;;;;;9.93;3.07;;;;;;;;;;5093769;28;20028;-77
2023/06/29 02:41:39;;;;;;;6.63;3.00;;;;;;;;;;5094606;28;20313;-76
2023/06/29 02:44:05;;;;;;;9.07;3.17;;;;;;;;;;5077451;28;20089;-76
2023/06/29 02:46:31;;;;;;;10.00;3.03;;;;;;;;;;5093144;28;20028;-77
2023/06/29 02:48:56;;;;;;;8.27;2.70;;;;;;;;;;5075904;28;20038;-77
2023/06/29 02:51:22;;;;;;;8.25;2.80;;;;;;;;;;5092846;28;20551;-76
2023/06/29 02:53:49;;;;;;;8.48;3.20;;;;;;;;;;5092866;28;20502;-77
2023/06/29 02:56:14;;;;;;;10.13;3.22;;;;;;;;;;5076057;28;20115;-76
2023/06/29 02:58:40;;;;;;;7.90;2.88;;;;;;;;;;5093555;28;20028;-77
2023/06/29 03:01:09;;;;;;;8.20;2.60;;;;;;;;;;5094802;28;20044;-77
2023/06/29 03:03:35;;;;;;;8.68;2.70;;;;;;;;;;5093115;28;20028;-77
2023/06/29 03:06:00;;;;;;;11.65;3.10;;;;;;;;;;5092770;28;20040;-75
2023/06/29 03:08:28;;;;;;;10.75;3.08;;;;;;;;;;5075997;28;20081;-75
2023/06/29 03:10:57;;;;;;;;;;;;;;;;;;5093601;28;20020;-77
2023/06/29 03:13:22;;;;;;;10.98;4.25;;;;;;;;;;5094265;28;20363;-78
2023/06/29 03:15:50;;;;;;;8.02;2.53;;;;;;;;;;5094557;28;20080;-76
2023/06/29 03:18:16;;;;;;;7.18;2.50;;;;;;;;;;5093297;28;20028;-78
2023/06/29 03:20:41;;;;;;;6.82;2.55;;;;;;;;;;5093364;28;20394;-77
2023/06/29 03:23:07;;;;;;;7.15;2.60;;;;;;;;;;5092794;28;20479;-77
2023/06/29 03:25:32;;;;;;;8.25;3.05;;;;;;;;;;5094809;28;20028;-78
2023/06/29 03:27:58;;;;;;;6.93;2.58;;;;;;;;;;5093860;28;20032;-77
2023/06/29 03:30:23;;;;;;;8.77;2.65;;;;;;;;;;5092777;28;20021;-76
2023/06/29 03:32:49;;;;;;;10.18;3.35;;;;;;;;;;5092875;28;20038;-77
2023/06/29 03:35:14;;;;;;;5.45;2.60;;;;;;;;;;5094032;28;20067;-78
2023/06/29 03:37:40;;;;;;;8.88;2.90;;;;;;;;;;5092653;28;20055;-76
2023/06/29 03:40:06;;;;;;;7.03;2.70;;;;;;;;;;5092483;28;20502;-78
2023/06/29 03:42:31;;;;;;;5.30;2.40;;;;;;;;;;5058814;28;20122;-76
2023/06/29 03:44:57;;;;;;;6.00;2.80;;;;;;;;;;5094849;28;20039;-77
2023/06/29 03:47:22;;;;;;;7.15;2.70;;;;;;;;;;5098197;28;20028;-77
2023/06/29 03:49:48;;;;;;;10.10;2.58;;;;;;;;;;5098442;28;20023;-77
2023/06/29 03:52:13;;;;;;;8.45;2.47;;;;;;;;;;5102948;28;20016;-77
2023/06/29 03:54:39;;;;;;;8.15;3.53;;;;;;;;;;5110696;28;20028;-76
2023/06/29 03:57:05;;;;;;;8.27;3.30;;;;;;;;;;5106037;28;20036;-78
2023/06/29 03:59:31;;;;;;;10.02;3.55;;;;;;;;;;5109353;28;20040;-76
2023/06/29 04:01:57;;;;;;;5.85;3.00;;;;;;;;;;5076631;28;20035;-75
2023/06/29 04:04:23;;;;;;;7.22;2.85;;;;;;;;;;5074627;28;20024;-77
2023/06/29 04:06:48;;;;;;;9.40;2.78;;;;;;;;;;5091530;28;20035;-77
2023/06/29 04:09:14;;;;;;;7.05;2.85;;;;;;;;;;5092481;28;20385;-77
2023/06/29 04:11:39;;;;;;;5.18;2.30;;;;;;;;;;5090803;28;20024;-78
2023/06/29 04:14:05;;;;;;;11.40;2.72;;;;;;;;;;5092893;28;20054;-76
2023/06/29 04:16:30;;;;;;;9.48;3.17;;;;;;;;;;5092876;28;20028;-76
2023/06/29 04:18:56;;;;;;;12.05;2.80;;;;;;;;;;5092999;28;20103;-77
2023/06/29 04:21:22;;;;;;;9.20;3.05;;;;;;;;;;5091515;28;20028;-78
2023/06/29 04:23:47;;;;;;;7.47;3.08;;;;;;;;;;5091576;28;20056;-76
2023/06/29 04:26:13;;;;;;;6.43;2.47;;;;;;;;;;5091370;28;20548;-75
2023/06/29 04:28:38;;;;;;;10.25;3.13;;;;;;;;;;5092209;28;20070;-76
2023/06/29 04:31:04;;;;;;;12.70;3.10;;;;;;;;;;5090624;28;20458;-77
2023/06/29 04:33:30;;;;;;;6.90;2.38;;;;;;;;;;5092204;28;20024;-77
2023/06/29 04:35:55;;;;;;;6.22;3.30;;;;;;;;;;5090562;28;20149;-75
2023/06/29 04:38:25;;;;;;;8.05;2.63;;;;;;;;;;5091815;28;20044;-76
2023/06/29 04:41:03;;;;;;;6.40;2.50;;;;;;;;;;5091715;28;20036;-76
2023/06/29 04:43:29;;;;;;;5.82;2.63;;;;;;;;;;5091928;28;20059;-76
2023/06/29 04:45:54;;;;;;;9.20;2.50;;;;;;;;;;5091688;28;20025;-77
2023/06/29 04:48:28;;;;;;;7.93;2.20;;;;;;;;;;5090482;28;20043;-77
2023/06/29 04:51:04;;;;;;;6.45;2.65;;;;;;;;;;5091492;28;20111;-76
2023/06/29 04:53:31;;;;;;;5.50;2.30;;;;;;;;;;5091809;28;20036;-77
2023/06/29 04:55:57;;;;;;;6.97;2.70;;;;;;;;;;5093022;28;20020;-77
2023/06/29 04:58:23;;;;;;;11.60;3.95;;;;;;;;;;5094870;28;20081;-78
2023/06/29 05:00:49;;;;;;;8.50;2.78;;;;;;;;;;5095300;28;20036;-77
2023/06/29 05:03:14;;;;;;;9.77;2.65;;;;;;;;;;5095946;28;20128;-77
2023/06/29 05:05:40;;;;;;;7.40;2.22;;;;;;;;;;5094537;28;20026;-77
2023/06/29 05:08:06;;;;;;;5.07;2.08;;;;;;;;;;5095703;28;20433;-76
2023/06/29 05:10:32;;;;;;;6.45;2.67;;;;;;;;;;5095617;28;20532;-78
2023/06/29 05:12:57;;;;;;;5.18;2.40;;;;;;;;;;5095868;28;20020;-77
2023/06/29 05:15:23;;;;;;;5.20;2.45;;;;;;;;;;5094852;28;20028;-76
2023/06/29 05:17:48;;;;;;;10.80;3.15;;;;;;;;;;5094376;28;20032;-77
2023/06/29 05:20:15;;;;;;;7.53;2.92;;;;;;;;;;5094190;28;20078;-77
2023/06/29 05:22:40;;;;;;;9.05;2.85;;;;;;;;;;5094002;28;20060;-77
2023/06/29 05:25:06;;;;;;;6.10;2.30;;;;;;;;;;5095183;28;20043;-77
2023/06/29 05:27:32;;;;;;;10.10;2.53;;;;;;;;;;5095156;28;20418;-76
2023/06/29 05:29:58;;;;;;;6.63;2.30;;;;;;;;;;5095019;28;20024;-77
2023/06/29 05:32:23;;;;;;;5.20;2.13;;;;;;;;;;5094765;28;20085;-77
2023/06/29 05:34:49;;;;;;;8.68;2.50;;;;;;;;;;5094083;28;20498;-76
2023/06/29 05:37:14;;;;;;;6.53;2.45;;;;;;;;;;5096152;28;20111;-77
2023/06/29 05:39:40;;;;;;;5.07;2.08;;;;;;;;;;5096284;28;20066;-77
2023/06/29 05:42:06;;;;;;;9.95;4.15;;;;;;;;;;5096002;28;20510;-75
2023/06/29 05:44:31;;;;;;;7.57;2.10;;;;;;;;;;5094591;28;20061;-77
2023/06/29 05:46:57;;;;;;;9.55;4.45;;;;;;;;;;5095266;28;20072;-76
2023/06/29 05:49:23;;;;;;;5.40;2.08;;;;;;;;;;5093653;28;20252;-78
2023/06/29 05:51:48;;;;;;;8.93;2.28;;;;;;;;;;5094253;28;20020;-79
2023/06/29 05:54:14;;;;;;;7.05;2.40;;;;;;;;;;5094127;28;20039;-78
2023/06/29 05:56:39;;;;;;;7.22;2.60;;;;;;;;;;5095007;28;20433;-76
2023/06/29 05:59:14;;;;;;;8.48;2.67;;;;;;;;;;5095879;28;20438;-81
2023/06/29 06:01:40;;;;;;;4.72;2.42;;;;;;;;;;5026271;28;20050;-84
2023/06/29 06:04:05;;;;;;;6.78;2.35;;;;;;;;;;5000148;28;20081;-82
2023/06/29 06:06:32;;;;;;;8.93;2.72;;;;;;;;;;4997990;28;20038;-82
2023/06/29 06:08:58;;;;;;;8.20;2.63;;;;;;;;;;5012107;28;20044;-82
2023/06/29 06:11:23;;;;;;;8.35;2.25;;;;;;;;;;5031268;28;20456;-83
2023/06/29 06:13:49;;;;;;;5.57;2.60;;;;;;;;;;5015139;28;20488;-83
2023/06/29 06:16:15;;;;;;;6.05;2.17;;;;;;;;;;5032058;28;20034;-83
2023/06/29 06:18:40;;;;;;;6.97;2.05;;;;;;;;;;5017317;28;20123;-82
2023/06/29 06:21:06;;;;;;;6.65;2.28;;;;;;;;;;5016627;28;20038;-82
2023/06/29 06:23:31;;;;;;;5.15;2.30;;;;;;;;;;5016025;28;20085;-82
2023/06/29 06:25:57;;;;;;;4.65;1.92;;;;;;;;;;5020854;28;20402;-83
2023/06/29 06:28:24;;;;;;;10.52;2.80;;;;;;;;;;5028483;28;20036;-81
2023/06/29 06:30:49;;;;;;;11.18;2.80;;;;;;;;;;5043275;28;20034;-84
2023/06/29 06:33:15;;;;;;;7.45;1.70;;;;;;;;;;5029801;28;20026;-82
2023/06/29 06:35:41;;;;;;;8.57;2.03;;;;;;;;;;5024640;28;20515;-83
2023/06/29 06:38:07;;;;;;;6.35;2.15;;;;;;;;;;5026744;28;20057;-82
2023/06/29 06:40:32;;;;;;;4.05;1.63;;;;;;;;;;5002304;28;20034;-81
2023/06/29 06:42:58;;;;;;;7.00;2.28;;;;;;;;;;5016276;28;20040;-83
2023/06/29 06:45:23;;;;;;;10.27;2.50;;;;;;;;;;4997824;28;20046;-83
2023/06/29 06:47:49;;;;;;;4.65;1.85;;;;;;;;;;5014806;28;20397;-83
2023/06/29 06:50:14;;;;;;;4.65;2.00;;;;;;;;;;5029611;28;20397;-82
2023/06/29 06:52:40;;;;;;;6.63;2.35;;;;;;;;;;5014148;28;20088;-82
2023/06/29 06:55:06;;;;;;;8.23;1.90;;;;;;;;;;5014892;28;20026;-82
2023/06/29 06:57:32;;;;;;;6.10;1.60;;;;;;;;;;5014091;28;20041;-82
2023/06/29 06:59:57;;;;;;;7.18;2.15;;;;;;;;;;5029746;28;20053;-81
2023/06/29 07:02:23;;;;;;;6.22;1.60;;;;;;;;;;5013382;28;20037;-82
2023/06/29 07:04:48;;;;;;;8.30;1.67;;;;;;;;;;5030124;28;20052;-83
2023/06/29 07:07:14;;;;;;;6.20;1.77;;;;;;;;;;5013954;28;20034;-83
2023/06/29 07:09:39;;;;;;;4.25;1.55;;;;;;;;;;5012793;28;20103;-83
2023/06/29 07:12:05;;;;;;;6.85;1.50;;;;;;;;;;4996485;28;20072;-84
2023/06/29 07:14:31;;;;;;;5.68;1.60;;;;;;;;;;5012785;28;20033;-82
2023/06/29 07:16:57;;;;;;;3.65;1.67;;;;;;;;;;5012618;28;20044;-83
2023/06/29 07:19:23;;;;;;;4.13;1.42;;;;;;;;;;5013790;28;20545;-82
2023/06/29 07:21:48;;;;;;;2.90;1.50;;;;;;;;;;5012116;28;20409;-83
2023/06/29 07:24:14;;;;;;;4.05;1.48;;;;;;;;;;4996541;28;20107;-82
2023/06/29 07:26:40;;;;;;;4.18;1.55;;;;;;;;;;5012792;28;20401;-83
2023/06/29 07:29:06;;;;;;;4.40;1.63;;;;;;;;;;5028783;28;20030;-82
2023/06/29 07:31:35;;;;;;;5.43;1.48;;;;;;;;;;5012109;28;20022;-83
2023/06/29 07:34:00;;;;;;;;;;;;;;;;;;5013599;28;20026;-83
2023/06/29 07:36:26;;;;;;;5.47;1.58;;;;;;;;;;5045319;28;19954;-83
2023/06/29 07:38:52;;;;;;;5.20;1.33;;;;;;;;;;5029296;28;20153;-83
2023/06/29 07:41:22;;;;;;;;;;;;;;;;;;5013082;28;20500;-82
2023/06/29 07:43:51;;;;;;;5.25;1.55;;;;;;;;;;5013331;28;20000;-83
2023/06/29 07:46:17;;;;;;;5.03;1.10;;;;;;;;;;5011831;28;20109;-83
2023/06/29 07:48:43;;;;;;;8.38;1.58;;;;;;;;;;5028410;28;20565;-83
2023/06/29 07:51:08;;;;;;;10.20;2.25;;;;;;;;;;4995577;28;20037;-81
2023/06/29 07:53:34;;;;;;;7.68;2.33;;;;;;;;;;5029391;28;20033;-83
2023/06/29 07:56:00;;;;;;;6.97;1.70;;;;;;;;;;4996787;28;20418;-82
2023/06/29 07:58:28;;;;;;;7.22;1.60;;;;;;;;;;5030896;28;20030;-83
2023/06/29 08:00:54;;;;;;;6.35;2.00;;;;;;;;;;5020731;28;20128;-80
2023/06/29 08:03:20;;;;;;;4.90;1.73;;;;;;;;;;5024979;28;20026;-82
2023/06/29 08:05:46;;;;;;;3.45;1.40;;;;;;;;;;5008936;28;20157;-82
2023/06/29 08:08:12;;;;;;;10.25;1.60;;;;;;;;;;5000185;28;20600;-80
2023/06/29 08:10:38;;;;;;;6.70;2.28;;;;;;;;;;5014090;28;20140;-81
2023/06/29 08:13:03;;;;;;;12.25;1.80;;;;;;;;;;5013656;28;20048;-83
2023/06/29 08:15:29;;;;;;;5.20;2.03;;;;;;;;;;5011889;28;20050;-83
2023/06/29 08:17:54;;;;;;;7.50;1.90;;;;;;;;;;5013069;28;20037;-82
2023/06/29 08:20:20;;;;;;;7.78;1.80;;;;;;;;;;5012545;28;20034;-84
2023/06/29 08:22:48;;;;;;;7.35;1.90;;;;;;;;;;5012658;28;20030;-83
2023/06/29 08:25:14;;;;;;;8.30;2.25;;;;;;;;;;4995380;28;20485;-83
2023/06/29 08:27:40;;;;;;;6.30;1.65;;;;;;;;;;5028509;28;20125;-84
2023/06/29 08:30:06;;;;;;;5.47;1.65;;;;;;;;;;5011769;28;20073;-83
2023/06/29 08:32:32;;;;;;;6.43;2.00;;;;;;;;;;5011474;28;20523;-83
2023/06/29 08:34:57;;;;;;;4.07;1.70;;;;;;;;;;5011829;28;20026;-83
2023/06/29 08:37:23;;;;;;;9.27;1.58;;;;;;;;;;5028197;28;20030;-83
2023/06/29 08:39:48;;;;;;;6.45;1.40;;;;;;;;;;5028115;28;20076;-83
2023/06/29 08:42:14;;;;;;;8.43;1.77;;;;;;;;;;5012979;28;20060;-83
2023/06/29 08:44:40;;;;;;;6.95;2.15;;;;;;;;;;5012943;28;20037;-82
2023/06/29 08:47:05;;;;;;;3.90;1.80;;;;;;;;;;5012901;28;20128;-81
2023/06/29 08:49:33;;;;;;;4.68;1.50;;;;;;;;;;5013703;28;20062;-83
2023/06/29 08:52:00;;;;;;;7.20;2.03;;;;;;;;;;5013151;28;20252;-82
2023/06/29 08:54:26;;;;;;;8.00;1.63;;;;;;;;;;4999513;28;20026;-83
2023/06/29 08:56:51;;;;;;;4.50;1.38;;;;;;;;;;5033785;28;20529;-84
2023/06/29 08:59:18;;;;;;;4.53;1.50;;;;;;;;;;5020351;28;20026;-82
2023/06/29 09:01:44;;;;;;;3.92;1.45;;;;;;;;;;5021534;28;20022;-81
2023/06/29 09:04:11;;;;;;;5.95;1.75;;;;;;;;;;5031497;28;20034;-83
2023/06/29 09:06:37;;;;;;;4.30;1.30;;;;;;;;;;5028569;28;20033;-82
2023/06/29 09:09:03;;;;;;;3.30;1.30;;;;;;;;;;5027528;28;20058;-80
2023/06/29 09:11:33;;;;;;;2.60;1.27;;;;;;;;;;5030070;28;20018;-83
2023/06/29 09:14:02;;;;;;;4.25;1.52;;;;;;;;;;5032680;28;20036;-81
2023/06/29 09:16:31;;;;;;;3.45;1.65;;;;;;;;;;5031196;28;20064;-82
2023/06/29 09:18:56;;;;;;;;;;;;;;;;;;5030244;28;20038;-83
2023/06/29 09:21:23;;;;;;;6.95;1.77;;;;;;;;;;5054412;28;20468;-84
2023/06/29 09:23:49;;;;;;;4.97;1.67;;;;;;;;;;5014356;28;20053;-82
2023/06/29 09:26:16;;;;;;;5.18;1.65;;;;;;;;;;5012264;28;20041;-82
2023/06/29 09:28:45;;;;;;;3.30;1.40;;;;;;;;;;5013523;28;20060;-83
2023/06/29 09:31:12;;;;;;;;;;;;;;;;;;5013980;28;20026;-83
2023/06/29 09:33:37;;;;;;;4.75;1.60;;;;;;;;;;5013247;28;19919;-83
2023/06/29 09:36:09;;;;;;;7.95;1.77;;;;;;;;;;5013582;28;20396;-83
2023/06/29 09:38:34;;;;;;;4.18;1.55;;;;;;;;;;5013937;28;20489;-83
2023/06/29 09:41:00;;;;;;;4.15;2.10;;;;;;;;;;5012712;28;20026;-82
2023/06/29 09:43:27;;;;;;;4.95;1.40;;;;;;;;;;5013323;28;20034;-84
2023/06/29 09:46:13;;;;;;;8.90;2.03;;;;;;;;;;5016064;28;20037;-83
2023/06/29 09:48:45;;;;;;;6.50;1.63;;;;;;;;;;5016083;28;20080;-82
2023/06/29 09:51:17;;;;;;;3.85;1.42;;;;;;;;;;5014775;28;20045;-83
2023/06/29 09:53:44;;;;;;;4.00;1.52;;;;;;;;;;5015607;28;20026;-83
2023/06/29 09:56:09;;;;;;;2.92;1.40;;;;;;;;;;4998952;28;20048;-84
2023/06/29 09:58:35;;;;;;;5.97;1.70;;;;;;;;;;4999165;28;20113;-83
2023/06/29 10:01:01;;;;;;;5.65;1.70;;;;;;;;;;4998880;28;20417;-83
2023/06/29 10:03:27;;;;;;;3.63;1.60;;;;;;;;;;5015071;28;20489;-84
2023/06/29 10:05:56;;;;;;;5.82;1.80;;;;;;;;;;5015186;28;20033;-81
2023/06/29 10:08:22;;;;;;;3.33;1.50;;;;;;;;;;5014726;28;20389;-84
2023/06/29 10:10:51;;;;;;;6.03;1.92;;;;;;;;;;5015898;28;20041;-83
2023/06/29 10:13:17;;;;;;;5.18;2.08;;;;;;;;;;5015991;28;20026;-83
2023/06/29 10:15:43;;;;;;;5.18;1.50;;;;;;;;;;5032221;28;20037;-82
2023/06/29 10:18:11;;;;;;;4.50;1.52;;;;;;;;;;5015081;28;20037;-83
2023/06/29 10:20:40;;;;;;;3.63;1.58;;;;;;;;;;5015432;28;20034;-83
2023/06/29 10:23:06;;;;;;;9.48;1.75;;;;;;;;;;5031529;28;20026;-82
2023/06/29 10:25:34;;;;;;;5.00;2.17;;;;;;;;;;5020703;28;20030;-83
2023/06/29 10:28:00;;;;;;;8.63;2.00;;;;;;;;;;5029974;28;20034;-82
2023/06/29 10:30:26;;;;;;;7.32;2.50;;;;;;;;;;5034211;28;20102;-81
2023/06/29 10:32:53;;;;;;;6.35;1.80;;;;;;;;;;5032207;28;20030;-82
2023/06/29 10:35:18;;;;;;;3.78;1.55;;;;;;;;;;5026265;28;20469;-83
2023/06/29 10:37:45;;;;;;;4.93;1.60;;;;;;;;;;5037102;28;20099;-81
2023/06/29 10:40:10;;;;;;;5.78;1.90;;;;;;;;;;5017878;28;20048;-82
2023/06/29 10:42:39;;;;;;;6.88;1.80;;;;;;;;;;5016298;28;20108;-84
2023/06/29 10:45:23;;;;;;;7.90;1.73;;;;;;;;;;5018383;28;20057;-82
2023/06/29 10:47:57;;;;;;;4.18;1.83;;;;;;;;;;5015474;28;20030;-82
2023/06/29 10:50:43;;;;;;;3.78;1.52;;;;;;;;;;5014790;28;20049;-83
2023/06/29 10:53:10;;;;;;;4.18;2.00;;;;;;;;;;5029699;28;20018;-83
2023/06/29 10:55:42;;;;;;;3.75;1.30;;;;;;;;;;5013591;28;20117;-82
2023/06/29 10:58:24;;;;;;;5.80;1.63;;;;;;;;;;5013178;28;20664;-81
2023/06/29 11:00:51;;;;;;;3.42;1.70;;;;;;;;;;5013383;28;20482;-83
2023/06/29 11:03:18;;;;;;;4.72;1.35;;;;;;;;;;5015475;28;20049;-82
2023/06/29 11:05:46;;;;;;;4.03;1.45;;;;;;;;;;5014243;28;20057;-82
2023/06/29 11:08:11;;;;;;;4.25;1.55;;;;;;;;;;5014427;28;20076;-83
2023/06/29 11:10:37;;;;;;;5.65;1.50;;;;;;;;;;5013756;28;20041;-83
2023/06/29 11:13:06;;;;;;;4.82;1.63;;;;;;;;;;5014832;28;20057;-82
2023/06/29 11:15:32;;;;;;;4.95;1.70;;;;;;;;;;5013456;28;20026;-82
2023/06/29 11:18:00;;;;;;;7.82;1.90;;;;;;;;;;5014423;28;20090;-83
2023/06/29 11:20:27;;;;;;;3.72;1.40;;;;;;;;;;5013860;28;20500;-83
2023/06/29 11:22:53;;;;;;;4.05;1.35;;;;;;;;;;5013131;28;20137;-83
2023/06/29 11:25:18;;;;;;;6.88;1.63;;;;;;;;;;5014201;28;20479;-83
2023/06/29 11:27:45;;;;;;;5.70;1.40;;;;;;;;;;5014498;28;20113;-81
2023/06/29 11:30:11;;;;;;;4.95;1.70;;;;;;;;;;5015122;28;20026;-82
2023/06/29 11:32:37;;;;;;;7.55;1.60;;;;;;;;;;5013064;28;20037;-83
2023/06/29 11:35:03;;;;;;;7.25;2.20;;;;;;;;;;5013249;28;20034;-83
2023/06/29 11:37:30;;;;;;;6.75;1.90;;;;;;;;;;5013653;28;20164;-83
2023/06/29 11:39:55;;;;;;;3.90;1.52;;;;;;;;;;5014442;28;20049;-83
2023/06/29 11:42:22;;;;;;;4.13;1.73;;;;;;;;;;5013866;28;20030;-84
2023/06/29 11:44:49;;;;;;;5.65;1.70;;;;;;;;;;5017073;28;20281;-82
2023/06/29 11:47:15;;;;;;;6.95;1.63;;;;;;;;;;5021659;28;20033;-83
2023/06/29 11:49:41;;;;;;;3.35;1.60;;;;;;;;;;5030331;28;20032;-83
2023/06/29 11:52:07;;;;;;;4.20;1.40;;;;;;;;;;5027413;28;20077;-83
2023/06/29 11:54:32;;;;;;;4.93;2.05;;;;;;;;;;5029864;28;20038;-81
2023/06/29 11:56:58;;;;;;;7.50;1.95;;;;;;;;;;5028821;28;20076;-83
2023/06/29 11:59:24;;;;;;;4.00;1.65;;;;;;;;;;5027240;28;20047;-81
2023/06/29 12:01:50;;;;;;;3.35;1.48;;;;;;;;;;5045031;22;20049;-78
2023/06/29 12:04:15;;;;;;;4.70;1.63;;;;;;;;;;5031547;28;20431;-78
2023/06/29 12:06:51;;;;;;;3.85;1.65;;;;;;;;;;5031991;28;20028;-77
2023/06/29 12:09:17;;;;;;;4.50;1.40;;;;;;;;;;5031040;28;20033;-78
2023/06/29 12:11:43;;;;;;;3.78;2.00;;;;;;;;;;5031712;28;20436;-78
2023/06/29 12:14:12;;;;;;;5.50;1.95;;;;;;;;;;5032246;28;20034;-78
2023/06/29 12:16:39;;;;;;;3.65;1.70;;;;;;;;;;5032215;28;20033;-77
2023/06/29 12:19:11;;;;;;;3.75;1.30;;;;;;;;;;5047528;28;20048;-78
2023/06/29 12:21:37;;;;;;;5.55;1.63;;;;;;;;;;5031957;28;20087;-78
2023/06/29 12:24:03;;;;;;;3.38;1.40;;;;;;;;;;5032268;28;20219;-78
2023/06/29 12:26:29;;;;;;;3.97;1.40;;;;;;;;;;5047554;28;20025;-77
2023/06/29 12:28:54;;;;;;;3.97;1.50;;;;;;;;;;5031726;28;20167;-78
2023/06/29 12:31:29;;;;;;;4.05;1.55;;;;;;;;;;5031627;28;20112;-78
2023/06/29 12:33:55;;;;;;;4.35;1.75;;;;;;;;;;5031217;28;20045;-77
2023/06/29 12:36:21;;;;;;;3.63;1.70;;;;;;;;;;5031078;28;20485;-78
2023/06/29 12:38:47;;;;;;;6.32;1.70;;;;;;;;;;5033022;28;20029;-78
2023/06/29 12:41:13;;;;;;;3.40;1.35;;;;;;;;;;5035104;28;20029;-79
2023/06/29 12:43:38;;;;;;;4.93;1.70;;;;;;;;;;5040034;28;20531;-77
2023/06/29 12:46:04;;;;;;;4.55;1.42;;;;;;;;;;5040168;28;20030;-78
2023/06/29 12:48:29;;;;;;;5.80;1.80;;;;;;;;;;5041046;28;20389;-77
2023/06/29 12:50:59;;;;;;;4.32;1.50;;;;;;;;;;5034681;28;20033;-79
2023/06/29 12:54:05;;;;;;;6.18;1.48;;;;;;;;;;5030527;28;20392;-78
2023/06/29 12:56:33;;;;;;;5.25;1.65;;;;;;;;;;5031985;28;20021;-77
2023/06/29 12:58:59;;;;;;;4.82;1.40;;;;;;;;;;5032087;28;20071;-78
2023/06/29 13:02:04;;;;;;;6.45;1.50;;;;;;;;;;5046181;28;20109;-79
2023/06/29 13:04:53;;;;;;;5.93;1.60;;;;;;;;;;5028317;28;20520;-78
2023/06/29 13:07:19;;;;;;;6.75;1.70;;;;;;;;;;5027400;28;20089;-78
2023/06/29 13:11:22;;;;;;;;;;;;;;;;;;;;;
2023/06/29 13:16:56;;;;;;;4.10;1.40;;;;;;;;;;4959484;28;20092;-78
2023/06/29 13:19:22;;;;;;;4.15;1.70;;;;;;;;;;5015645;28;20026;-77
2023/06/29 13:21:52;;;;;;;6.68;3.65;;;;;;;;;;5013716;28;20577;-77
2023/06/29 13:24:25;;;;;;;3.40;1.40;;;;;;;;;;5015981;28;20516;-77
2023/06/29 13:27:09;;;;;;;4.20;1.55;;;;;;;;;;5015626;28;20030;-77
2023/06/29 13:29:40;;;;;;;4.07;1.35;;;;;;;;;;5014279;28;20049;-78
2023/06/29 13:32:06;;;;;;;3.90;1.50;;;;;;;;;;5479732;23;20082;-78
2023/06/29 13:34:35;;;;;;;4.28;1.40;;;;;;;;;;5015324;28;20030;-78
2023/06/29 13:37:18;;;;;;;3.95;1.50;;;;;;;;;;5015418;28;20033;-78
2023/06/29 13:39:44;;;;;;;3.17;1.70;;;;;;;;;;5014012;28;20038;-79
2023/06/29 13:42:12;;;;;;;6.47;1.60;;;;;;;;;;5013411;28;20343;-78
2023/06/29 13:44:38;;;;;;;4.53;1.90;;;;;;;;;;5030291;28;20030;-78
2023/06/29 13:47:05;;;;;;;6.10;1.80;;;;;;;;;;5014687;28;20045;-78
2023/06/29 13:49:31;;;;;;;5.75;1.30;;;;;;;;;;4997678;28;20252;-78
2023/06/29 13:51:57;;;;;;;7.45;1.73;;;;;;;;;;5015106;28;20421;-78
2023/06/29 13:54:22;;;;;;;4.32;1.52;;;;;;;;;;5014779;28;20029;-77
2023/06/29 13:56:49;;;;;;;3.13;1.40;;;;;;;;;;5015009;28;20406;-77
2023/06/29 13:59:15;;;;;;;2.70;1.30;;;;;;;;;;5013972;28;20030;-77
2023/06/29 14:01:41;;;;;;;4.70;1.73;;;;;;;;;;5012993;28;20040;-78
2023/06/29 14:04:08;;;;;;;9.80;1.60;;;;;;;;;;5014810;28;20040;-78
2023/06/29 14:06:37;;;;;;;4.47;2.00;;;;;;;;;;5013623;28;20030;-79
2023/06/29 14:09:07;;;;;;;4.82;1.60;;;;;;;;;;5014710;28;20113;-78
2023/06/29 14:11:33;;;;;;;4.15;1.70;;;;;;;;;;5012969;28;20512;-79
2023/06/29 14:13:59;;;;;;;3.22;1.40;;;;;;;;;;5017458;28;20030;-77
2023/06/29 14:16:25;;;;;;;5.50;1.90;;;;;;;;;;5013672;28;20072;-78
2023/06/29 14:18:51;;;;;;;5.38;1.50;;;;;;;;;;5016896;28;20079;-78
2023/06/29 14:21:16;;;;;;;3.40;1.50;;;;;;;;;;5022393;28;20089;-78
2023/06/29 14:23:42;;;;;;;5.00;1.75;;;;;;;;;;5020079;28;20065;-77
2023/06/29 14:26:08;;;;;;;4.00;1.67;;;;;;;;;;5020593;28;20539;-76
2023/06/29 14:28:34;;;;;;;4.03;1.50;;;;;;;;;;5029526;28;20389;-77
2023/06/29 14:31:00;;;;;;;3.20;1.73;;;;;;;;;;5027328;28;20035;-78
2023/06/29 14:33:25;;;;;;;3.90;1.67;;;;;;;;;;5027652;28;20040;-78
2023/06/29 14:39:26;;;;;;;7.20;2.03;;;;;;;;;;4964169;28;20312;-80
2023/06/29 14:41:52;;;;;;;2.65;1.40;;;;;;;;;;5016045;28;20034;-78
2023/06/29 14:44:18;;;;;;;7.20;1.48;;;;;;;;;;5012751;28;20044;-78
2023/06/29 14:46:44;;;;;;;5.78;1.63;;;;;;;;;;5014627;28;20057;-79
2023/06/29 14:49:11;;;;;;;3.13;1.40;;;;;;;;;;5014423;28;20049;-78
2023/06/29 14:51:46;;;;;;;2.97;1.65;;;;;;;;;;5013564;28;20037;-79